Warm Lake, Idaho
Current Conditions -  °F | °C
As of 7:51 PM on Wednesday 26 Nov 2014 (Local Time) from KMYL Reporting Station
Haze Haze  
Wind Chill: 33°   Ceiling: Unl
Heat Index: 33°   Visibility: 5mi
Dew Point: 32°   Wind: 0mph
Humidity: 96%   Direction: NA
Pressure: 30.22"   Gusts: NA
Location:  44.4236°N, 115.8°W
Report Text: KMYL 270251Z AUTO 00000KT 5SM BR CLR 01/00 A3022 RMK AO2 SLP251 T00060000 55004
Loading
Personal Weather Stations






























Interactive Weather Map New forecast layout! Learn more

10-Day Weather Forecast

Advertisements
Track Severe Weather on mobile